createdAt,value
2019-03-26T00:00:45.608Z,7.97
2019-03-26T00:01:55.177Z,8.00
2019-03-26T00:02:59.995Z,7.92
2019-03-26T00:04:06.060Z,8.30
2019-03-26T00:05:11.878Z,8.08
2019-03-26T00:06:16.448Z,8.45
2019-03-26T00:07:20.903Z,8.35
2019-03-26T00:08:25.358Z,8.75
2019-03-26T00:09:29.816Z,8.28
2019-03-26T00:10:34.593Z,7.83
2019-03-26T00:11:39.369Z,9.00
2019-03-26T00:12:43.829Z,8.50
2019-03-26T00:13:48.290Z,9.48
2019-03-26T00:14:52.747Z,8.98
2019-03-26T00:15:57.215Z,8.80
2019-03-26T00:17:01.698Z,10.00
2019-03-26T00:18:06.228Z,9.33
2019-03-26T00:19:10.689Z,9.43
2019-03-26T00:20:15.167Z,9.38
2019-03-26T00:21:19.623Z,10.18
2019-03-26T00:22:24.398Z,10.23
2019-03-26T00:23:28.858Z,9.70
2019-03-26T00:24:33.675Z,9.65
2019-03-26T00:25:38.126Z,9.75
2019-03-26T00:26:42.605Z,9.18
2019-03-26T00:27:47.067Z,9.08
2019-03-26T00:28:51.853Z,10.60
2019-03-26T00:29:56.616Z,10.30
2019-03-26T00:31:01.463Z,10.45
2019-03-26T00:32:05.960Z,9.98
2019-03-26T00:33:10.927Z,10.82
2019-03-26T00:34:19.547Z,10.13
2019-03-26T00:35:21.592Z,10.08
2019-03-26T00:36:26.219Z,9.18
2019-03-26T00:37:31.658Z,9.60
2019-03-26T00:38:36.191Z,9.15
2019-03-26T00:39:40.786Z,9.33
2019-03-26T00:40:45.251Z,10.72
2019-03-26T00:41:49.752Z,10.50
2019-03-26T00:42:54.216Z,11.45
2019-03-26T00:43:59.667Z,11.30
2019-03-26T00:45:04.794Z,11.55
2019-03-26T00:46:09.263Z,10.95
2019-03-26T00:47:14.167Z,11.38
2019-03-26T00:48:18.631Z,11.68
2019-03-26T00:49:23.501Z,11.08
2019-03-26T00:50:27.964Z,13.28
2019-03-26T00:51:32.825Z,13.55
2019-03-26T00:52:37.351Z,12.80
2019-03-26T00:53:42.098Z,13.43
2019-03-26T00:54:46.562Z,14.70
2019-03-26T00:55:51.021Z,14.20
2019-03-26T00:56:55.525Z,15.15
2019-03-26T00:58:01.676Z,14.25
2019-03-26T00:59:06.672Z,15.23
2019-03-26T01:00:12.001Z,14.20
2019-03-26T01:01:16.810Z,15.72
2019-03-26T01:02:21.647Z,16.87
2019-03-26T01:03:26.110Z,14.83
2019-03-26T01:04:33.191Z,16.23
2019-03-26T01:05:36.875Z,15.55
2019-03-26T01:06:41.335Z,13.53
2019-03-26T01:07:45.857Z,15.38
2019-03-26T01:08:50.334Z,14.23
2019-03-26T01:09:54.820Z,14.98
2019-03-26T01:10:59.293Z,14.65
2019-03-26T01:12:03.877Z,14.68
2019-03-26T01:13:08.341Z,14.13
2019-03-26T01:14:13.780Z,14.58
2019-03-26T01:15:18.263Z,15.63
2019-03-26T01:16:23.112Z,13.45
2019-03-26T01:17:27.611Z,13.78
2019-03-26T01:18:32.406Z,13.85
2019-03-26T01:19:37.224Z,14.80
2019-03-26T01:20:41.694Z,13.88
2019-03-26T01:21:46.196Z,13.60
2019-03-26T01:22:50.657Z,13.70
2019-03-26T01:23:55.133Z,13.70
2019-03-26T01:24:59.599Z,13.28
2019-03-26T01:26:04.068Z,12.95
2019-03-26T01:27:08.575Z,14.75
2019-03-26T01:28:13.397Z,12.90
2019-03-26T01:29:19.044Z,14.30
2019-03-26T01:30:23.511Z,13.62
2019-03-26T01:31:28.007Z,14.07
2019-03-26T01:32:32.802Z,14.20
2019-03-26T01:33:37.286Z,13.70
2019-03-26T01:34:46.294Z,13.20
2019-03-26T01:35:47.922Z,14.43
2019-03-26T01:36:52.431Z,14.58
2019-03-26T01:37:56.903Z,14.65
2019-03-26T01:39:01.375Z,13.62
2019-03-26T01:40:07.383Z,14.53
2019-03-26T01:41:12.838Z,15.20
2019-03-26T01:42:17.340Z,14.00
2019-03-26T01:43:22.143Z,14.50
2019-03-26T01:44:26.613Z,14.80
2019-03-26T01:45:31.071Z,15.93
2019-03-26T01:46:35.578Z,15.28
2019-03-26T01:47:40.061Z,13.98
2019-03-26T01:48:44.663Z,15.30
2019-03-26T01:49:49.129Z,15.43
2019-03-26T01:50:53.589Z,16.27
2019-03-26T01:51:58.112Z,17.32
2019-03-26T01:53:02.567Z,19.15
2019-03-26T01:54:07.048Z,17.90
2019-03-26T01:55:11.589Z,17.57
2019-03-26T01:56:16.055Z,17.62
2019-03-26T01:57:20.930Z,16.67
2019-03-26T01:58:25.710Z,17.62
2019-03-26T01:59:30.181Z,16.25
2019-03-26T02:00:34.939Z,16.02
2019-03-26T02:01:39.440Z,17.07
2019-03-26T02:02:43.909Z,16.93
2019-03-26T02:03:48.723Z,17.05
2019-03-26T02:04:59.764Z,18.75
2019-03-26T02:06:00.340Z,17.32
2019-03-26T02:07:04.853Z,18.90
2019-03-26T02:08:09.362Z,19.67
2019-03-26T02:09:13.785Z,18.17
2019-03-26T02:10:18.247Z,18.00
2019-03-26T02:11:22.720Z,19.07
2019-03-26T02:12:27.216Z,17.05
2019-03-26T02:13:31.688Z,17.27
2019-03-26T02:14:36.151Z,17.32
2019-03-26T02:15:41.291Z,19.05
2019-03-26T02:16:46.113Z,18.20
2019-03-26T02:17:50.576Z,18.37
2019-03-26T02:18:55.046Z,17.70
2019-03-26T02:19:59.887Z,17.23
2019-03-26T02:21:05.113Z,16.37
2019-03-26T02:22:09.623Z,19.07
2019-03-26T02:23:14.571Z,17.62
2019-03-26T02:24:19.034Z,16.67
2019-03-26T02:25:23.562Z,17.25
2019-03-26T02:26:28.030Z,17.55
2019-03-26T02:27:32.519Z,19.23
2019-03-26T02:28:36.995Z,19.10
2019-03-26T02:29:41.452Z,19.02
2019-03-26T02:30:46.999Z,18.20
2019-03-26T02:31:51.857Z,19.17
2019-03-26T02:32:56.729Z,20.48
2019-03-26T02:34:01.257Z,19.77
2019-03-26T02:35:17.990Z,18.80
2019-03-26T02:36:12.025Z,18.73
2019-03-26T02:37:16.527Z,18.75
2019-03-26T02:38:21.023Z,19.42
2019-03-26T02:39:25.496Z,18.98
2019-03-26T02:40:29.962Z,18.60
2019-03-26T02:41:37.838Z,18.48
2019-03-26T02:42:40.767Z,19.57
2019-03-26T02:43:45.229Z,17.75
2019-03-26T02:44:49.700Z,20.00
2019-03-26T02:45:56.920Z,20.30
2019-03-26T02:47:01.805Z,18.20
2019-03-26T02:48:06.255Z,19.50
2019-03-26T02:49:11.118Z,18.65
2019-03-26T02:50:15.972Z,18.70
2019-03-26T02:51:21.778Z,19.25
2019-03-26T02:52:26.285Z,18.75
2019-03-26T02:53:30.749Z,17.77
2019-03-26T02:54:35.561Z,17.48
2019-03-26T02:55:40.438Z,18.75
2019-03-26T02:56:45.272Z,18.15
2019-03-26T02:57:50.087Z,18.85
2019-03-26T02:58:54.570Z,17.73
2019-03-26T02:59:59.042Z,18.85
2019-03-26T03:01:03.541Z,17.65
2019-03-26T03:02:08.342Z,17.35
2019-03-26T03:03:12.816Z,18.45
2019-03-26T03:04:17.276Z,17.77
2019-03-26T03:05:34.273Z,19.20
2019-03-26T03:06:27.941Z,18.32
2019-03-26T03:07:32.411Z,20.10
2019-03-26T03:08:36.951Z,18.20
2019-03-26T03:09:41.786Z,19.65
2019-03-26T03:10:46.627Z,18.50
2019-03-26T03:11:51.166Z,17.85
2019-03-26T03:12:55.635Z,18.27
2019-03-26T03:14:00.104Z,18.40
2019-03-26T03:15:05.830Z,18.25
2019-03-26T03:16:10.318Z,16.57
2019-03-26T03:17:14.804Z,17.25
2019-03-26T03:18:19.275Z,17.10
2019-03-26T03:19:23.740Z,18.92
2019-03-26T03:20:28.243Z,18.65
2019-03-26T03:21:32.751Z,19.15
2019-03-26T03:22:37.556Z,18.50
2019-03-26T03:23:42.039Z,18.10
2019-03-26T03:24:46.890Z,18.57
2019-03-26T03:25:51.387Z,18.50
2019-03-26T03:26:55.882Z,19.23
2019-03-26T03:28:00.320Z,17.98
2019-03-26T03:29:04.785Z,19.48
2019-03-26T03:30:10.751Z,18.02
2019-03-26T03:31:15.252Z,17.65
2019-03-26T03:32:19.728Z,17.23
2019-03-26T03:33:24.537Z,17.48
2019-03-26T03:34:29.006Z,17.75
2019-03-26T03:35:33.483Z,17.27
2019-03-26T03:36:37.974Z,17.20
2019-03-26T03:37:42.448Z,16.40
2019-03-26T03:38:47.297Z,16.30
2019-03-26T03:39:51.763Z,17.73
2019-03-26T03:40:56.262Z,17.52
2019-03-26T03:42:00.724Z,17.15
2019-03-26T03:43:05.554Z,17.10
2019-03-26T03:44:10.327Z,16.42
2019-03-26T03:45:17.966Z,17.35
2019-03-26T03:46:22.979Z,17.65
2019-03-26T03:47:30.875Z,17.85
2019-03-26T03:48:36.481Z,16.62
2019-03-26T03:49:41.309Z,16.80
2019-03-26T03:50:46.767Z,16.82
2019-03-26T03:51:53.163Z,16.95
2019-03-26T03:52:59.828Z,17.62
2019-03-26T03:54:04.431Z,15.95
2019-03-26T03:55:09.241Z,16.48
2019-03-26T03:56:16.944Z,16.45
2019-03-26T03:57:24.009Z,16.48
2019-03-26T03:58:30.040Z,17.30
2019-03-26T03:59:34.844Z,16.00
2019-03-26T04:00:41.553Z,16.23
2019-03-26T04:01:46.043Z,15.50
2019-03-26T04:02:50.515Z,15.45
2019-03-26T04:03:54.977Z,16.15
2019-03-26T04:04:59.450Z,16.32
2019-03-26T04:06:09.454Z,16.05
2019-03-26T04:07:10.116Z,16.87
2019-03-26T04:08:14.581Z,16.87
2019-03-26T04:09:19.051Z,17.55
2019-03-26T04:10:23.519Z,17.62
2019-03-26T04:11:28.314Z,17.45
2019-03-26T04:12:32.786Z,16.15
2019-03-26T04:13:37.600Z,16.87
2019-03-26T04:14:42.357Z,16.55
2019-03-26T04:15:47.150Z,15.68
2019-03-26T04:16:52.059Z,16.07
2019-03-26T04:17:56.532Z,16.90
2019-03-26T04:19:01.292Z,16.80
2019-03-26T04:20:06.100Z,16.87
2019-03-26T04:21:10.977Z,17.80
2019-03-26T04:22:15.481Z,17.23
2019-03-26T04:23:19.996Z,17.05
2019-03-26T04:24:24.458Z,16.95
2019-03-26T04:25:28.920Z,16.35
2019-03-26T04:26:33.420Z,17.10
2019-03-26T04:27:38.065Z,16.23
2019-03-26T04:28:42.514Z,16.52
2019-03-26T04:29:46.990Z,16.50
2019-03-26T04:30:51.444Z,16.32
2019-03-26T04:31:56.259Z,16.62
2019-03-26T04:33:01.078Z,15.93
2019-03-26T04:34:05.556Z,15.23
2019-03-26T04:35:10.125Z,16.75
2019-03-26T04:36:25.481Z,17.35
2019-03-26T04:37:21.215Z,16.05
2019-03-26T04:38:29.141Z,16.67
2019-03-26T04:39:34.122Z,16.82
2019-03-26T04:40:38.683Z,17.92
2019-03-26T04:41:43.155Z,17.35
2019-03-26T04:42:47.611Z,17.02
2019-03-26T04:43:52.367Z,16.82
2019-03-26T04:44:57.233Z,18.45
2019-03-26T04:46:01.955Z,19.32
2019-03-26T04:47:06.478Z,19.00
2019-03-26T04:48:11.027Z,17.50
2019-03-26T04:49:15.487Z,18.05
2019-03-26T04:50:20.188Z,17.98
2019-03-26T04:51:24.687Z,17.87
2019-03-26T04:52:29.147Z,17.02
2019-03-26T04:53:34.336Z,17.02
2019-03-26T04:54:38.898Z,16.85
2019-03-26T04:55:43.464Z,16.15
2019-03-26T04:56:48.348Z,15.75
2019-03-26T04:57:52.812Z,16.45
2019-03-26T04:58:58.310Z,17.07
2019-03-26T05:00:02.830Z,16.90
2019-03-26T05:01:07.431Z,17.40
2019-03-26T05:02:11.946Z,17.67
2019-03-26T05:03:18.045Z,17.27
2019-03-26T05:04:22.495Z,16.65
2019-03-26T05:05:27.146Z,16.85
2019-03-26T05:06:38.004Z,17.62
2019-03-26T05:07:38.453Z,18.17
2019-03-26T05:08:42.923Z,19.48
2019-03-26T05:09:47.749Z,17.12
2019-03-26T05:10:52.226Z,18.57
2019-03-26T05:11:57.161Z,18.15
2019-03-26T05:13:01.631Z,17.73
2019-03-26T05:14:06.104Z,18.48
2019-03-26T05:15:11.598Z,18.57
2019-03-26T05:16:16.321Z,18.52
2019-03-26T05:17:20.975Z,18.35
2019-03-26T05:18:25.505Z,19.05
2019-03-26T05:19:31.034Z,20.05
2019-03-26T05:20:35.546Z,18.75
2019-03-26T05:21:40.323Z,19.80
2019-03-26T05:22:45.200Z,19.42
2019-03-26T05:23:51.894Z,19.70
2019-03-26T05:24:57.149Z,20.82
2019-03-26T05:26:01.610Z,19.95
2019-03-26T05:27:06.090Z,20.37
2019-03-26T05:28:10.554Z,22.32
2019-03-26T05:29:15.116Z,20.80
2019-03-26T05:30:19.565Z,22.20
2019-03-26T05:31:24.041Z,21.93
2019-03-26T05:46:24.144Z,25.30
2019-03-26T05:47:28.683Z,26.42
2019-03-26T05:48:33.549Z,27.32
2019-03-26T05:49:39.088Z,29.60
2019-03-26T05:50:43.560Z,29.12
2019-03-26T05:51:48.050Z,29.50
2019-03-26T05:52:52.924Z,28.25
2019-03-26T05:53:58.786Z,29.98
2019-03-26T05:55:03.315Z,30.10
2019-03-26T05:56:07.779Z,30.25
2019-03-26T05:57:12.248Z,28.95
2019-03-26T05:58:17.031Z,30.65
2019-03-26T05:59:21.499Z,30.50
2019-03-26T06:00:26.148Z,30.12
2019-03-26T06:01:30.900Z,30.08
2019-03-26T06:02:35.393Z,31.75
2019-03-26T06:03:39.858Z,31.35
2019-03-26T06:04:44.340Z,31.55
2019-03-26T06:05:49.161Z,29.65
2019-03-26T06:07:04.293Z,27.77
2019-03-26T06:07:59.955Z,28.70
2019-03-26T06:09:05.767Z,28.00
2019-03-26T06:10:11.349Z,29.23
2019-03-26T06:11:15.823Z,27.95
2019-03-26T06:12:20.312Z,27.58
2019-03-26T06:13:24.811Z,27.55
2019-03-26T06:14:29.270Z,27.15
2019-03-26T06:15:33.748Z,28.15
2019-03-26T06:16:38.894Z,26.95
2019-03-26T06:17:43.533Z,25.37
2019-03-26T06:18:47.998Z,25.48
2019-03-26T06:19:52.903Z,25.27
2019-03-26T06:20:57.372Z,24.80
2019-03-26T06:22:01.932Z,24.55
2019-03-26T06:23:06.936Z,23.95
2019-03-26T06:24:11.424Z,23.70
2019-03-26T06:25:15.963Z,22.98
2019-03-26T06:26:20.583Z,24.25
2019-03-26T06:27:25.234Z,22.90
2019-03-26T06:28:29.860Z,22.20
2019-03-26T06:29:34.660Z,22.58
2019-03-26T06:30:39.809Z,21.42
2019-03-26T06:31:44.634Z,20.62
2019-03-26T06:32:49.185Z,20.65
2019-03-26T06:33:53.934Z,22.58
2019-03-26T06:34:58.421Z,20.48
2019-03-26T06:36:02.953Z,20.88
2019-03-26T06:37:17.385Z,19.45
2019-03-26T06:38:13.606Z,18.50
2019-03-26T06:39:18.077Z,18.27
2019-03-26T06:40:22.949Z,18.12
2019-03-26T06:41:27.406Z,16.85
2019-03-26T06:42:31.892Z,17.10
2019-03-26T06:43:37.392Z,16.80
2019-03-26T06:44:42.130Z,14.98
2019-03-26T06:45:46.596Z,15.70
2019-03-26T06:46:51.067Z,15.63
2019-03-26T06:47:55.562Z,15.03
2019-03-26T06:49:00.150Z,12.60
2019-03-26T06:50:07.568Z,13.13
2019-03-26T06:51:12.037Z,12.18
2019-03-26T06:52:16.740Z,12.90
2019-03-26T06:53:21.220Z,11.57
2019-03-26T06:54:25.687Z,12.15
2019-03-26T06:55:30.146Z,11.93
2019-03-26T06:56:34.849Z,10.30
2019-03-26T06:57:39.316Z,10.70
2019-03-26T06:58:43.816Z,10.35
2019-03-26T06:59:48.273Z,10.23
2019-03-26T07:00:53.191Z,10.08
2019-03-26T07:01:57.728Z,10.10
2019-03-26T07:03:03.828Z,9.58
2019-03-26T07:04:08.928Z,9.68
2019-03-26T07:05:13.631Z,9.63
2019-03-26T07:06:18.108Z,10.20
2019-03-26T07:07:31.349Z,9.65
2019-03-26T07:08:28.821Z,8.65
2019-03-26T07:09:33.314Z,9.13
2019-03-26T07:10:37.964Z,8.38
2019-03-26T07:11:42.414Z,9.15
2019-03-26T07:12:46.874Z,10.20
2019-03-26T07:13:51.758Z,9.08
2019-03-26T07:14:56.222Z,8.98
2019-03-26T07:16:00.693Z,8.65
2019-03-26T07:17:05.161Z,7.33
2019-03-26T07:18:09.926Z,6.87
2019-03-26T07:19:14.407Z,7.53
2019-03-26T07:20:19.037Z,7.60
2019-03-26T07:21:23.494Z,8.43
2019-03-26T07:22:28.360Z,6.62
2019-03-26T07:23:33.909Z,6.72
2019-03-26T07:24:38.390Z,6.40
2019-03-26T07:25:42.862Z,5.83
2019-03-26T07:26:47.378Z,5.78
2019-03-26T07:27:52.261Z,4.60
2019-03-26T07:28:56.999Z,5.08
2019-03-26T07:30:01.460Z,6.17
2019-03-26T07:31:05.987Z,5.72
2019-03-26T07:32:10.745Z,5.80
2019-03-26T07:33:15.351Z,4.87
2019-03-26T07:34:20.202Z,5.78
2019-03-26T07:35:24.646Z,5.58
2019-03-26T07:36:29.113Z,5.35
2019-03-26T07:37:44.619Z,4.92
2019-03-26T07:38:40.067Z,4.72
2019-03-26T07:39:44.551Z,5.70
2019-03-26T07:40:49.030Z,4.45
2019-03-26T07:41:53.886Z,5.55
2019-03-26T07:42:58.682Z,4.47
2019-03-26T07:44:03.452Z,4.92
2019-03-26T07:45:08.578Z,4.35
2019-03-26T07:46:13.041Z,4.42
2019-03-26T07:47:17.502Z,4.53
2019-03-26T07:48:21.957Z,4.15
2019-03-26T07:49:26.441Z,4.08
2019-03-26T07:50:30.910Z,4.08
2019-03-26T07:51:35.373Z,4.60
2019-03-26T07:52:39.851Z,3.80
2019-03-26T07:53:44.318Z,3.50
2019-03-26T07:54:49.089Z,4.45
2019-03-26T07:55:53.571Z,4.60
2019-03-26T07:56:58.471Z,4.58
2019-03-26T07:58:03.423Z,3.90
2019-03-26T07:59:07.985Z,3.55
2019-03-26T08:00:13.403Z,3.55
2019-03-26T08:01:18.109Z,5.50
2019-03-26T08:02:22.564Z,3.98
2019-03-26T08:03:27.023Z,4.95
2019-03-26T08:04:31.922Z,3.40
2019-03-26T08:05:36.771Z,3.08
2019-03-26T08:06:41.528Z,3.30
2019-03-26T08:07:57.777Z,3.75
2019-03-26T08:08:52.545Z,3.58
2019-03-26T08:09:57.376Z,4.20
2019-03-26T08:11:01.817Z,4.22
2019-03-26T08:12:06.280Z,3.37
2019-03-26T08:13:10.774Z,3.58
2019-03-26T08:14:15.248Z,3.87
2019-03-26T08:15:20.344Z,3.87
2019-03-26T08:16:25.404Z,3.52
2019-03-26T08:17:29.819Z,5.30
2019-03-26T08:18:34.280Z,3.00
2019-03-26T08:19:38.762Z,3.05
2019-03-26T08:20:43.230Z,3.30
2019-03-26T08:21:47.696Z,3.47
2019-03-26T08:22:52.161Z,3.33
2019-03-26T08:23:56.621Z,3.12
2019-03-26T08:25:01.108Z,3.67
2019-03-26T08:26:06.630Z,2.87
2019-03-26T08:27:11.176Z,4.67
2019-03-26T08:28:15.627Z,3.27
2019-03-26T08:29:20.092Z,3.83
2019-03-26T08:30:24.586Z,2.80
2019-03-26T08:31:29.113Z,3.15
2019-03-26T08:32:33.568Z,3.25
2019-03-26T08:33:38.034Z,3.42
2019-03-26T08:34:42.544Z,3.55
2019-03-26T08:35:47.005Z,3.00
2019-03-26T08:36:51.471Z,2.80
2019-03-26T08:37:55.918Z,4.28
2019-03-26T08:39:00.451Z,3.10
2019-03-26T08:40:08.373Z,2.92
2019-03-26T08:41:12.826Z,3.40
2019-03-26T08:42:17.571Z,3.20
2019-03-26T08:43:22.041Z,3.72
2019-03-26T08:44:26.518Z,2.35
2019-03-26T08:45:31.014Z,2.45
2019-03-26T08:46:35.747Z,1.87
2019-03-26T08:47:40.229Z,2.22
2019-03-26T08:48:45.044Z,3.35
2019-03-26T08:49:49.522Z,2.83
2019-03-26T08:50:53.997Z,2.40
2019-03-26T08:51:58.887Z,2.33
2019-03-26T08:53:03.335Z,2.50
2019-03-26T08:54:07.798Z,3.50
2019-03-26T08:55:13.031Z,2.80
2019-03-26T08:56:17.555Z,2.55
2019-03-26T08:57:22.405Z,2.70
2019-03-26T08:58:26.921Z,2.22
2019-03-26T08:59:31.483Z,1.98
2019-03-26T09:00:35.965Z,2.77
2019-03-26T09:01:40.818Z,3.05
2019-03-26T09:02:45.307Z,2.15
2019-03-26T09:03:49.760Z,2.37
2019-03-26T09:04:54.247Z,2.40
2019-03-26T09:05:58.886Z,2.45
2019-03-26T09:07:03.357Z,2.27
2019-03-26T09:08:08.209Z,1.75
2019-03-26T09:09:13.049Z,2.30
2019-03-26T09:10:17.678Z,1.90
2019-03-26T09:11:22.151Z,2.15
2019-03-26T09:12:26.612Z,4.17
2019-03-26T09:13:31.089Z,2.90
2019-03-26T09:14:35.547Z,2.35
2019-03-26T09:15:40.403Z,4.25
2019-03-26T09:16:44.875Z,2.70
2019-03-26T09:17:49.335Z,2.72
2019-03-26T09:18:54.185Z,2.25
2019-03-26T09:19:58.663Z,2.42
2019-03-26T09:21:03.150Z,2.85
2019-03-26T09:22:07.627Z,3.40
2019-03-26T09:23:12.583Z,3.72
2019-03-26T09:24:17.119Z,3.15
2019-03-26T09:25:21.725Z,2.52
2019-03-26T09:26:26.231Z,2.45
2019-03-26T09:27:30.672Z,6.40
2019-03-26T09:28:35.149Z,4.05
2019-03-26T09:29:39.719Z,2.58
2019-03-26T09:30:44.246Z,4.87
2019-03-26T09:31:48.709Z,2.60
2019-03-26T09:32:53.186Z,2.77
2019-03-26T09:33:58.036Z,3.45
2019-03-26T09:35:02.784Z,5.42
2019-03-26T09:36:07.266Z,2.90
2019-03-26T09:37:11.727Z,3.67
2019-03-26T09:38:16.188Z,2.45
2019-03-26T09:39:21.624Z,2.22
2019-03-26T09:40:26.179Z,2.10
2019-03-26T09:41:31.336Z,2.52
2019-03-26T09:42:37.589Z,2.63
2019-03-26T09:43:42.046Z,3.22
2019-03-26T09:44:46.505Z,2.75
2019-03-26T09:45:51.046Z,5.58
2019-03-26T09:46:55.525Z,4.00
2019-03-26T09:47:59.999Z,2.85
2019-03-26T09:49:04.471Z,2.25
2019-03-26T09:50:11.298Z,6.03
2019-03-26T09:51:15.778Z,4.50
2019-03-26T09:52:20.235Z,2.33
2019-03-26T09:53:25.677Z,2.75
2019-03-26T09:54:30.447Z,2.25
2019-03-26T09:55:34.982Z,2.45
2019-03-26T09:56:39.886Z,3.47
2019-03-26T09:57:44.341Z,3.75
2019-03-26T09:58:48.869Z,4.75
2019-03-26T09:59:53.342Z,3.72
2019-03-26T10:00:57.814Z,2.62
2019-03-26T10:02:02.303Z,2.75
2019-03-26T10:03:06.765Z,4.17
2019-03-26T10:04:11.303Z,2.98
2019-03-26T10:05:15.768Z,2.80
2019-03-26T10:06:23.725Z,2.58
2019-03-26T10:07:26.745Z,2.45
2019-03-26T10:08:31.282Z,2.65
2019-03-26T10:09:35.751Z,2.80
2019-03-26T10:10:41.312Z,3.05
2019-03-26T10:11:45.864Z,2.33
2019-03-26T10:12:50.328Z,4.03
2019-03-26T10:13:54.788Z,2.75
2019-03-26T10:14:59.554Z,4.10
2019-03-26T10:16:04.520Z,6.85
2019-03-26T10:17:10.317Z,2.20
2019-03-26T10:18:14.772Z,3.12
2019-03-26T10:19:19.246Z,2.45
2019-03-26T10:20:23.706Z,12.73
2019-03-26T10:21:28.183Z,2.30
2019-03-26T10:22:32.671Z,4.20
2019-03-26T10:23:37.125Z,2.80
2019-03-26T10:24:41.584Z,2.20
2019-03-26T10:25:46.420Z,2.33
2019-03-26T10:26:51.238Z,2.60
2019-03-26T10:27:56.663Z,2.50
2019-03-26T10:29:15.095Z,2.05
2019-03-26T10:30:11.110Z,2.37
2019-03-26T10:31:15.571Z,2.87
2019-03-26T10:32:20.111Z,1.70
2019-03-26T10:33:24.568Z,2.62
2019-03-26T10:34:29.034Z,2.00
2019-03-26T10:35:33.634Z,2.83
2019-03-26T10:36:41.460Z,2.30
2019-03-26T10:37:45.122Z,2.20
2019-03-26T10:38:49.858Z,2.52
2019-03-26T10:39:54.716Z,3.20
2019-03-26T10:40:59.567Z,3.75
2019-03-26T10:42:06.922Z,2.92
2019-03-26T10:43:10.509Z,3.62
2019-03-26T10:44:15.815Z,3.00
2019-03-26T10:45:20.257Z,2.17
2019-03-26T10:46:24.725Z,2.90
2019-03-26T10:47:29.608Z,2.47
2019-03-26T10:48:34.072Z,2.95
2019-03-26T10:49:38.542Z,3.20
2019-03-26T10:50:42.998Z,2.47
2019-03-26T10:51:47.463Z,2.33
2019-03-26T10:52:51.960Z,2.47
2019-03-26T10:53:56.410Z,2.80
2019-03-26T10:55:01.264Z,1.90
2019-03-26T10:56:07.219Z,2.40
2019-03-26T10:57:11.680Z,2.45
2019-03-26T10:58:16.445Z,2.92
2019-03-26T10:59:20.902Z,2.45
2019-03-26T11:00:25.709Z,2.40
2019-03-26T11:01:30.237Z,2.15
2019-03-26T11:02:34.720Z,2.52
2019-03-26T11:03:39.791Z,2.50
2019-03-26T11:04:44.635Z,2.33
2019-03-26T11:05:49.473Z,2.85
2019-03-26T11:06:55.008Z,2.15
2019-03-26T11:07:59.492Z,2.65
2019-03-26T11:09:18.874Z,2.08
2019-03-26T11:10:11.804Z,2.55
2019-03-26T11:11:16.552Z,2.05
2019-03-26T11:12:21.298Z,2.80
2019-03-26T11:13:25.783Z,2.65
2019-03-26T11:14:31.965Z,3.75
2019-03-26T11:15:36.831Z,2.85
2019-03-26T11:16:41.414Z,2.15
2019-03-26T11:17:46.301Z,2.20
2019-03-26T11:18:50.776Z,2.10
2019-03-26T11:19:56.189Z,2.62
2019-03-26T11:21:03.029Z,3.05
2019-03-26T11:22:06.887Z,2.80
2019-03-26T11:23:11.400Z,2.40
2019-03-26T11:24:15.835Z,2.20
2019-03-26T11:25:20.619Z,2.40
2019-03-26T11:26:25.459Z,2.60
2019-03-26T11:27:30.211Z,2.15
2019-03-26T11:28:35.003Z,2.00
2019-03-26T11:29:39.451Z,2.10
2019-03-26T11:30:44.304Z,1.57
2019-03-26T11:31:48.759Z,2.12
2019-03-26T11:32:53.579Z,1.90
2019-03-26T11:33:59.591Z,1.98
2019-03-26T11:35:08.296Z,1.30
2019-03-26T11:36:12.754Z,1.70
2019-03-26T11:37:17.293Z,1.40
2019-03-26T11:38:21.792Z,1.47
2019-03-26T11:39:32.539Z,1.27
2019-03-26T11:40:32.748Z,1.27
2019-03-26T11:41:37.286Z,1.40
2019-03-26T11:42:41.742Z,1.20
2019-03-26T11:43:46.547Z,1.30
2019-03-26T11:44:51.042Z,1.30
2019-03-26T11:45:55.504Z,1.40
2019-03-26T11:47:01.389Z,1.37
2019-03-26T11:48:05.812Z,1.50
2019-03-26T11:49:10.284Z,1.62
2019-03-26T11:50:15.173Z,1.77
2019-03-26T11:51:19.633Z,2.10
2019-03-26T11:52:24.493Z,1.60
2019-03-26T11:53:29.308Z,1.80
2019-03-26T11:54:33.764Z,1.70
2019-03-26T11:55:38.558Z,1.87
2019-03-26T11:56:43.357Z,1.92
2019-03-26T11:57:47.826Z,1.98
2019-03-26T11:58:52.298Z,1.92
2019-03-26T11:59:57.731Z,2.00
2019-03-26T12:01:02.195Z,1.98
2019-03-26T12:02:08.387Z,1.32
2019-03-26T12:03:12.842Z,2.02
2019-03-26T12:04:17.321Z,2.45
2019-03-26T12:05:21.797Z,2.00
2019-03-26T12:06:26.636Z,1.95
2019-03-26T12:07:31.460Z,3.27
2019-03-26T12:08:36.277Z,1.92
2019-03-26T12:09:46.444Z,2.30
2019-03-26T12:10:48.267Z,1.82
2019-03-26T12:11:52.723Z,2.17
2019-03-26T12:12:57.198Z,1.80
2019-03-26T12:14:02.114Z,2.47
2019-03-26T12:15:11.062Z,2.10
2019-03-26T12:16:15.535Z,4.03
2019-03-26T12:17:20.371Z,1.77
2019-03-26T12:18:24.825Z,1.65
2019-03-26T12:19:29.308Z,2.80
2019-03-26T12:20:34.043Z,2.12
2019-03-26T12:21:39.081Z,2.80
2019-03-26T12:22:43.540Z,2.70
2019-03-26T12:23:47.996Z,2.17
2019-03-26T12:24:52.545Z,2.37
2019-03-26T12:25:57.003Z,1.95
2019-03-26T12:27:02.430Z,2.17
2019-03-26T12:28:06.961Z,1.90
2019-03-26T12:29:11.423Z,2.75
2019-03-26T12:30:18.946Z,1.90
2019-03-26T12:31:23.472Z,2.58
2019-03-26T12:32:28.265Z,4.28
2019-03-26T12:33:32.728Z,2.33
2019-03-26T12:34:39.010Z,2.22
2019-03-26T12:35:45.514Z,2.27
2019-03-26T12:36:49.993Z,2.47
2019-03-26T12:37:54.805Z,1.98
2019-03-26T12:38:59.340Z,2.10
2019-03-26T12:40:07.617Z,1.30
2019-03-26T12:41:12.375Z,1.70
2019-03-26T12:42:16.824Z,1.42
2019-03-26T12:43:21.356Z,1.62
2019-03-26T12:44:26.100Z,1.50
2019-03-26T12:45:30.893Z,1.60
2019-03-26T12:46:37.288Z,1.52
2019-03-26T12:47:41.766Z,1.62
2019-03-26T12:48:49.312Z,1.12
2019-03-26T12:49:53.861Z,1.40
2019-03-26T12:50:58.313Z,2.27
2019-03-26T12:52:02.773Z,1.30
2019-03-26T12:53:07.522Z,1.98
2019-03-26T12:54:11.986Z,1.30
2019-03-26T12:55:17.121Z,1.60
2019-03-26T12:56:21.588Z,1.77
2019-03-26T12:57:27.369Z,1.30
2019-03-26T12:58:36.234Z,1.65
2019-03-26T12:59:38.795Z,2.62
2019-03-26T13:00:43.329Z,3.42
2019-03-26T13:01:47.861Z,2.30
2019-03-26T13:02:52.604Z,3.58
2019-03-26T13:03:57.052Z,2.22
2019-03-26T13:05:01.572Z,1.95
2019-03-26T13:06:06.592Z,6.53
2019-03-26T13:07:12.648Z,2.87
2019-03-26T13:08:18.896Z,1.80
2019-03-26T13:09:23.513Z,1.70
2019-03-26T13:10:28.432Z,1.80
2019-03-26T13:11:33.169Z,1.87
2019-03-26T13:12:37.939Z,1.87
2019-03-26T13:13:42.517Z,2.00
2019-03-26T13:14:47.299Z,1.85
2019-03-26T13:15:51.849Z,2.00
2019-03-26T13:16:56.295Z,1.90
2019-03-26T13:18:00.755Z,2.92
2019-03-26T13:19:06.041Z,1.85
2019-03-26T13:20:10.901Z,2.40
2019-03-26T13:21:15.422Z,2.15
2019-03-26T13:22:20.429Z,3.55
2019-03-26T13:23:25.332Z,2.20
2019-03-26T13:24:29.811Z,2.37
2019-03-26T13:25:35.443Z,2.62
2019-03-26T13:26:39.978Z,2.67
2019-03-26T13:27:44.437Z,2.50
2019-03-26T13:28:48.908Z,2.75
2019-03-26T13:29:53.420Z,2.70
2019-03-26T13:30:57.898Z,2.10
2019-03-26T13:32:02.354Z,3.55
2019-03-26T13:33:06.812Z,2.98
2019-03-26T13:34:11.259Z,2.85
2019-03-26T13:35:15.872Z,2.62
2019-03-26T13:36:20.325Z,2.62
2019-03-26T13:37:24.798Z,2.72
2019-03-26T13:38:29.634Z,3.40
2019-03-26T13:39:34.397Z,2.40
2019-03-26T13:40:38.944Z,2.55
2019-03-26T13:41:44.093Z,2.10
2019-03-26T13:42:48.557Z,2.35
2019-03-26T13:43:53.024Z,2.25
2019-03-26T13:44:57.497Z,1.98
2019-03-26T13:46:01.974Z,2.00
2019-03-26T13:47:06.427Z,2.30
2019-03-26T13:48:10.885Z,2.20
2019-03-26T13:49:15.423Z,2.25
2019-03-26T13:50:20.652Z,2.35
2019-03-26T13:51:25.123Z,2.55
2019-03-26T13:52:29.590Z,2.15
2019-03-26T13:53:34.082Z,2.17
2019-03-26T13:54:38.544Z,1.67
2019-03-26T13:55:42.985Z,2.05
2019-03-26T13:56:47.476Z,2.40
2019-03-26T13:57:51.931Z,1.98
2019-03-26T13:58:56.388Z,1.57
2019-03-26T14:00:01.230Z,1.82
2019-03-26T14:01:06.127Z,1.90
2019-03-26T14:02:10.591Z,1.60
2019-03-26T14:03:15.035Z,2.12
2019-03-26T14:04:19.873Z,2.20
2019-03-26T14:05:26.144Z,1.57
2019-03-26T14:06:32.425Z,1.80
2019-03-26T14:07:37.036Z,1.52
2019-03-26T14:08:41.812Z,1.82
2019-03-26T14:09:46.263Z,1.70
2019-03-26T14:10:50.719Z,1.55
2019-03-26T14:11:57.720Z,1.70
2019-03-26T14:13:01.704Z,1.50
2019-03-26T14:14:06.629Z,2.20
2019-03-26T14:15:11.219Z,1.50
2019-03-26T14:16:15.714Z,1.50
2019-03-26T14:17:20.476Z,1.32
2019-03-26T14:18:25.228Z,1.40
2019-03-26T14:19:29.678Z,1.70
2019-03-26T14:20:34.277Z,1.65
2019-03-26T14:21:38.796Z,1.50
2019-03-26T14:22:43.322Z,2.00
2019-03-26T14:23:48.082Z,1.95